宮崎空港の過去48時間の天気

宮崎空港 (Miyazaki)

現在時刻: 1/26 16:09 JST (1/26 07:09 UTC) 以下の時間は現地時間です。

過去48時間のMETAR気象情報
時間 風向 風速(m/s) 視程 気温(℃) 湿度(%) 気圧(hPa) 天気現象
26 15:00 北北東 5 10km以上 12 82 1019
26 14:35 北西 3 10km以上 12 82 1020 弱いしゅう雨
26 14:00 6 9000m 12 82 1020
26 13:00 北北東 8 5000m 11 94 1020 弱いしゅう雨 もや
26 12:00 北北東 8 7000m 11 87 1021 弱いしゅう雨
26 11:29 4 6000m 11 94 1022 弱いしゅう雨
26 11:00 西北西 3 4000m 10 94 1022 弱いしゅう雨 もや
26 10:14 北北東 5 3500m 10 94 1023 弱いしゅう雨 もや
26 10:00 不定 1 3500m 10 94 1023 弱いしゅう雨 もや
26 09:12 北西 3 4000m 11 82 1023 弱いしゅう雨 もや
26 09:00 北西 2 8000m 11 82 1022 弱いしゅう雨
26 08:00 北西 3 10km以上 11 76 1022
26 07:00 北西 3 10km以上 10 82 1022
26 06:10 北西 3 10km以上 10 82 1021 弱いしゅう雨
25 21:00 北北東 12 5000m 11 87 1023 弱いしゅう雨 もや
25 20:32 北東 11 5000m 11 87 1023 弱いしゅう雨 もや
25 20:00 北北東 8 3500m 11 94 1024 しゅう雨 もや
25 19:42 7 2000m 11 87 1024 強いしゅう雨 もや
25 19:11 北北東 8 3000m 12 88 1022 弱いしゅう雨 もや
25 19:00 北北東 8 5000m 12 88 1022 弱いしゅう雨 もや
25 18:00 北東 8 5000m 12 94 1022 弱いしゅう雨 もや
25 17:00 北東 8 3500m 12 94 1022 弱いしゅう雨 もや
25 16:16 北東 6 2500m 13 88 1022 しゅう雨 もや
25 16:00 北東 5 4500m 13 88 1022 弱いしゅう雨 もや
25 15:33 不定 2 2800m 12 94 1022 しゅう雨 もや
25 15:00 北北西 2 3500m 12 94 1023 弱いしゅう雨 もや
25 14:00 北北西 3 2000m 12 94 1023 弱いしゅう雨 もや
25 13:00 3 3000m 12 94 1024 弱いしゅう雨 もや
25 12:08 北北東 6 4000m 12 94 1024 弱いしゅう雨 もや
25 12:00 北東 6 5000m 12 94 1024 弱いしゅう雨 もや
25 11:39 北東 6 5000m 12 94 1025 弱いしゅう雨 もや
25 11:00 3 3500m 12 94 1025 弱いしゅう雨 もや
25 10:41 北北西 3 3500m 12 94 1026 弱いしゅう雨 もや
25 10:00 北北東 5 3000m 12 94 1026 弱いしゅう雨 もや
25 09:00 北北東 6 4000m 12 88 1026 弱いしゅう雨 もや
25 08:00 北北東 6 4000m 12 88 1025 弱いしゅう雨 もや
25 07:00 北北東 6 4500m 12 88 1025 弱いしゅう雨 もや
24 21:00 北北東 8 10km以上 16 59 1024
24 20:00 北北東 8 10km以上 16 63 1024
24 19:00 北北東 9 10km以上 16 63 1023
24 18:00 北東 8 10km以上 16 68 1023
24 17:00 北北東 8 10km以上 16 68 1023
RJFM 260600Z 02010KT 340V050 9999 FEW005 SCT010 BKN015 12/09 Q1019
RJFM 260535Z 31005KT 270V010 9999 -SHRA FEW005 BKN010 BKN015 12/09 Q1020 RMK 1ST005 5ST010 7CU015 A3013
RJFM 260500Z 01012KT 9000 FEW005 BKN010 BKN015 12/09 Q1020
RJFM 260400Z 02015KT 5000 -SHRA BR FEW005 BKN010 BKN015 11/10 Q1020
RJFM 260300Z 03015KT 7000 -SHRA FEW005 BKN010 BKN015 11/09 Q1021
RJFM 260229Z 36007KT 330V030 6000 -SHRA FEW004 BKN010 BKN015 11/10 Q1022 RMK 1ST004 5ST010 7CU015 A3018
RJFM 260200Z 30005KT 260V360 4000 -SHRA BR FEW004 SCT007 BKN012 10/09 Q1022
RJFM 260114Z 02010KT 3500 -SHRA BR FEW004 SCT008 BKN010 10/09 Q1023 RMK 1ST004 3ST008 7ST010 A3021
RJFM 260100Z VRB02KT 3500 -SHRA BR FEW005 BKN010 BKN015 10/09 Q1023
RJFM 260012Z 32005KT 4000 -SHRA BR FEW003 BKN012 BKN025 11/08 Q1023 RMK 1ST003 6CU012 7CU025 A3021
RJFM 260000Z 32004KT 260V350 8000 -SHRA FEW003 BKN015 BKN025 11/08 Q1022
RJFM 252300Z 32006KT 9999 FEW003 BKN015 BKN030 11/07 Q1022
RJFM 252200Z 32006KT 9999 FEW010 BKN013 BKN025 10/07 Q1022
RJFM 252110Z 32006KT 290V360 9999 -SHRA FEW010 BKN015 BKN025 10/07 Q1021 RMK 1ST010 5CU015 7CU025 A3018
RJFM 251200Z 03023KT 5000 -SHRA BR FEW005 SCT008 BKN010 11/09 Q1023
RJFM 251132Z 04022KT 5000 -SHRA BR FEW005 SCT008 BKN010 11/09 Q1023 RMK 1ST005 3ST008 5ST010 A3023
RJFM 251100Z 02015KT 3500 SHRA BR FEW004 SCT007 BKN010 11/10 Q1024
RJFM 251042Z 36013KT 320V020 2000 +SHRA BR FEW004 BKN007 BKN010 11/09 Q1024 RMK 1ST004 5ST007 6ST010 A3025 P/RR RI++
RJFM 251011Z 03015KT 3000 -SHRA BR FEW004 BKN007 BKN010 12/10 Q1022 RMK 1ST004 5ST007 6ST010 A3020
RJFM 251000Z 03015KT 5000 -SHRA BR FEW005 SCT007 BKN010 12/10 Q1022
RJFM 250900Z 04015KT 5000 -SHRA BR FEW005 SCT008 BKN010 12/11 Q1022
RJFM 250800Z 04015KT 3500 -SHRA BR FEW002 SCT008 BKN010 12/11 Q1022
RJFM 250716Z 04011KT 2500 SHRA BR FEW002 SCT005 BKN008 13/11 Q1022 RMK 1ST002 3ST005 5ST008 A3020
RJFM 250700Z 04010KT 4500 -SHRA BR FEW002 SCT005 BKN008 13/11 Q1022
RJFM 250633Z VRB04KT 2800 SHRA BR FEW002 SCT005 BKN007 12/11 Q1022 RMK 1ST002 3ST005 5ST007 A3021
RJFM 250600Z 34004KT 310V020 3500 -SHRA BR FEW002 SCT005 BKN007 12/11 Q1023
RJFM 250500Z 34005KT 2000 -SHRA BR FEW002 SCT004 BKN005 12/11 Q1023
RJFM 250400Z 36006KT 330V050 3000 -SHRA BR FEW003 BKN005 BKN007 12/11 Q1024
RJFM 250308Z 03012KT 4000 -SHRA BR FEW003 SCT006 BKN010 12/11 Q1024 RMK 1ST003 4ST006 6ST010 A3026
RJFM 250300Z 04011KT 5000 -SHRA BR FEW003 SCT006 BKN010 12/11 Q1024
RJFM 250239Z 05011KT 5000 -SHRA BR FEW003 SCT006 BKN008 12/11 Q1025 RMK 1ST003 3ST006 5ST008 A3027
RJFM 250200Z 01005KT 280V040 3500 -SHRA BR FEW003 SCT005 BKN008 12/11 Q1025
RJFM 250141Z 33005KT 3500 -SHRA BR FEW003 BKN008 BKN010 12/11 Q1026 RMK 1ST003 5ST008 7ST010 A3031
RJFM 250100Z 03010KT 3000 -SHRA BR FEW005 SCT006 BKN007 12/11 Q1026
RJFM 250000Z 03011KT 4000 -SHRA BR FEW005 SCT008 BKN010 12/10 Q1026
RJFM 242300Z 02012KT 4000 -SHRA BR FEW005 SCT008 BKN015 12/10 Q1025
RJFM 242200Z 02011KT 4500 -SHRA BR FEW005 SCT008 BKN015 12/10 Q1025
RJFM 241200Z 03015KT 9999 FEW025 SCT040 BKN050 16/08 Q1024
RJFM 241100Z 03016KT 9999 FEW025 BKN040 BKN045 16/09 Q1024
RJFM 241000Z 03017KT 9999 FEW025 BKN035 BKN050 16/09 Q1023
RJFM 240900Z 04016KT 9999 FEW020 BKN035 BKN050 16/10 Q1023
RJFM 240800Z 03015KT 9999 FEW020 BKN035 BKN045 16/10 Q1023